Terminal Aerodrome Forecast
Issued by NWS Paducah, KY

Home | Current Version | Previous Version | Text Only | Print | Product List | Glossary Off
Versions: 1 2 3 4 5 6 7 8 9 10 11 12 13 14

000
FTUS43 KPAH 192300
TAFEVV
TAF
KEVV 192320Z 2000/2024 02003KT P6SM SCT035 OVC130
     FM200400 02002KT P6SM OVC035
     FM200700 02002KT 5SM BR OVC015
     FM201100 02003KT 5SM BR OVC010
     FM201500 02003KT P6SM BKN060=

USA.gov is the U.S. government's official web portal to all federal, state and local government web resources and services.